sensor_id;sensor_type;location;lat;lon;timestamp;temperature;humidity
79711;DHT22;69465;51.630;6.570;2023-04-25T01:54:04;7.00;60.20
79711;DHT22;69465;51.630;6.570;2023-04-25T01:56:32;7.10;60.10
79711;DHT22;69465;51.630;6.570;2023-04-25T01:58:59;7.10;59.90
79711;DHT22;69465;51.630;6.570;2023-04-25T02:01:26;7.20;60.10
79711;DHT22;69465;51.630;6.570;2023-04-25T02:03:52;7.20;59.80
79711;DHT22;69465;51.630;6.570;2023-04-25T02:06:20;7.20;59.50
79711;DHT22;69465;51.630;6.570;2023-04-25T02:08:47;7.20;59.60
79711;DHT22;69465;51.630;6.570;2023-04-25T02:11:14;7.20;59.60
79711;DHT22;69465;51.630;6.570;2023-04-25T02:13:40;7.20;59.50
79711;DHT22;69465;51.630;6.570;2023-04-25T02:16:07;7.20;59.60
79711;DHT22;69465;51.630;6.570;2023-04-25T02:18:34;7.20;59.50
79711;DHT22;69465;51.630;6.570;2023-04-25T02:21:01;7.20;59.40
79711;DHT22;69465;51.630;6.570;2023-04-25T02:23:28;7.20;58.80
79711;DHT22;69465;51.630;6.570;2023-04-25T02:25:56;7.20;59.10
79711;DHT22;69465;51.630;6.570;2023-04-25T02:28:24;7.20;58.80
79711;DHT22;69465;51.630;6.570;2023-04-25T02:30:51;7.20;59.00
79711;DHT22;69465;51.630;6.570;2023-04-25T02:33:17;7.20;58.90
79711;DHT22;69465;51.630;6.570;2023-04-25T02:35:44;7.30;59.20
79711;DHT22;69465;51.630;6.570;2023-04-25T02:38:11;7.30;59.30
79711;DHT22;69465;51.630;6.570;2023-04-25T02:40:37;7.30;59.20
79711;DHT22;69465;51.630;6.570;2023-04-25T02:43:04;7.30;59.80
79711;DHT22;69465;51.630;6.570;2023-04-25T02:45:31;7.30;59.20
79711;DHT22;69465;51.630;6.570;2023-04-25T02:47:57;7.30;59.30
79711;DHT22;69465;51.630;6.570;2023-04-25T02:50:24;7.30;59.40
79711;DHT22;69465;51.630;6.570;2023-04-25T02:52:51;7.30;59.40
79711;DHT22;69465;51.630;6.570;2023-04-25T02:55:17;7.30;59.50
79711;DHT22;69465;51.630;6.570;2023-04-25T02:57:44;7.30;59.70
79711;DHT22;69465;51.630;6.570;2023-04-25T03:00:11;7.30;59.80
79711;DHT22;69465;51.630;6.570;2023-04-25T03:02:38;7.30;59.70
79711;DHT22;69465;51.630;6.570;2023-04-25T03:05:05;7.30;59.60
79711;DHT22;69465;51.630;6.570;2023-04-25T03:07:31;7.30;59.50
79711;DHT22;69465;51.630;6.570;2023-04-25T03:09:58;7.30;59.50
79711;DHT22;69465;51.630;6.570;2023-04-25T03:12:25;7.30;59.50
79711;DHT22;69465;51.630;6.570;2023-04-25T03:14:51;7.30;59.50
79711;DHT22;69465;51.630;6.570;2023-04-25T03:17:18;7.30;59.50
79711;DHT22;69465;51.630;6.570;2023-04-25T03:19:44;7.30;59.30
79711;DHT22;69465;51.630;6.570;2023-04-25T03:22:11;7.30;59.30
79711;DHT22;69465;51.630;6.570;2023-04-25T03:24:38;7.30;59.20
79711;DHT22;69465;51.630;6.570;2023-04-25T03:27:04;7.20;59.20
79711;DHT22;69465;51.630;6.570;2023-04-25T03:29:31;7.20;58.80
79711;DHT22;69465;51.630;6.570;2023-04-25T03:31:58;7.10;58.90
79711;DHT22;69465;51.630;6.570;2023-04-25T03:34:25;7.00;59.00
79711;DHT22;69465;51.630;6.570;2023-04-25T03:36:51;7.00;59.20
79711;DHT22;69465;51.630;6.570;2023-04-25T03:39:18;6.90;59.20
79711;DHT22;69465;51.630;6.570;2023-04-25T03:41:44;6.90;59.60
79711;DHT22;69465;51.630;6.570;2023-04-25T03:44:11;6.80;59.80
79711;DHT22;69465;51.630;6.570;2023-04-25T03:46:38;6.70;59.90
79711;DHT22;69465;51.630;6.570;2023-04-25T03:49:04;6.70;60.00
79711;DHT22;69465;51.630;6.570;2023-04-25T03:51:31;6.60;60.00
79711;DHT22;69465;51.630;6.570;2023-04-25T03:53:58;6.60;60.10
79711;DHT22;69465;51.630;6.570;2023-04-25T03:56:24;6.50;60.20
79711;DHT22;69465;51.630;6.570;2023-04-25T03:58:51;6.50;60.30
79711;DHT22;69465;51.630;6.570;2023-04-25T04:01:18;6.40;60.30
79711;DHT22;69465;51.630;6.570;2023-04-25T04:03:44;6.40;60.20
79711;DHT22;69465;51.630;6.570;2023-04-25T04:06:11;6.30;60.00
79711;DHT22;69465;51.630;6.570;2023-04-25T04:08:38;6.30;60.00
79711;DHT22;69465;51.630;6.570;2023-04-25T04:11:05;6.30;59.90
79711;DHT22;69465;51.630;6.570;2023-04-25T04:13:31;6.30;60.20
79711;DHT22;69465;51.630;6.570;2023-04-25T04:15:58;6.30;60.00
79711;DHT22;69465;51.630;6.570;2023-04-25T04:18:25;6.30;59.80
79711;DHT22;69465;51.630;6.570;2023-04-25T04:20:51;6.30;59.80
79711;DHT22;69465;51.630;6.570;2023-04-25T04:23:19;6.20;59.60
79711;DHT22;69465;51.630;6.570;2023-04-25T04:25:45;6.20;59.60
79711;DHT22;69465;51.630;6.570;2023-04-25T04:28:12;6.20;59.60
79711;DHT22;69465;51.630;6.570;2023-04-25T04:30:39;6.20;59.70
79711;DHT22;69465;51.630;6.570;2023-04-25T04:33:05;6.10;59.60
79711;DHT22;69465;51.630;6.570;2023-04-25T04:35:32;6.10;59.60
79711;DHT22;69465;51.630;6.570;2023-04-25T04:37:59;6.10;59.90
79711;DHT22;69465;51.630;6.570;2023-04-25T04:40:26;6.10;59.70
79711;DHT22;69465;51.630;6.570;2023-04-25T04:42:52;6.10;59.70
79711;DHT22;69465;51.630;6.570;2023-04-25T04:45:19;6.10;59.40
79711;DHT22;69465;51.630;6.570;2023-04-25T04:47:46;6.10;59.70
79711;DHT22;69465;51.630;6.570;2023-04-25T04:50:13;6.10;59.70
79711;DHT22;69465;51.630;6.570;2023-04-25T04:52:39;6.20;59.90
79711;DHT22;69465;51.630;6.570;2023-04-25T04:55:06;6.20;59.70
79711;DHT22;69465;51.630;6.570;2023-04-25T04:57:33;6.30;59.40
79711;DHT22;69465;51.630;6.570;2023-04-25T05:00:00;6.40;59.20
79711;DHT22;69465;51.630;6.570;2023-04-25T05:02:27;6.40;58.90
79711;DHT22;69465;51.630;6.570;2023-04-25T05:04:55;6.50;59.00
79711;DHT22;69465;51.630;6.570;2023-04-25T05:07:23;6.60;58.40
79711;DHT22;69465;51.630;6.570;2023-04-25T05:09:49;6.70;58.00
79711;DHT22;69465;51.630;6.570;2023-04-25T05:12:16;6.70;57.60
79711;DHT22;69465;51.630;6.570;2023-04-25T05:14:42;6.80;57.30
79711;DHT22;69465;51.630;6.570;2023-04-25T05:17:09;6.90;57.30
79711;DHT22;69465;51.630;6.570;2023-04-25T05:19:36;7.00;57.40
79711;DHT22;69465;51.630;6.570;2023-04-25T05:22:03;7.10;56.20
79711;DHT22;69465;51.630;6.570;2023-04-25T05:24:29;7.10;55.20
79711;DHT22;69465;51.630;6.570;2023-04-25T05:26:56;7.10;55.20
79711;DHT22;69465;51.630;6.570;2023-04-25T05:29:23;7.10;55.30
79711;DHT22;69465;51.630;6.570;2023-04-25T05:31:50;7.20;56.30
79711;DHT22;69465;51.630;6.570;2023-04-25T05:34:16;7.20;55.20
79711;DHT22;69465;51.630;6.570;2023-04-25T05:36:43;7.30;55.40
79711;DHT22;69465;51.630;6.570;2023-04-25T05:39:10;7.40;55.30
79711;DHT22;69465;51.630;6.570;2023-04-25T05:41:36;7.40;54.40
79711;DHT22;69465;51.630;6.570;2023-04-25T05:44:03;7.50;54.50
79711;DHT22;69465;51.630;6.570;2023-04-25T05:46:30;7.60;53.70
79711;DHT22;69465;51.630;6.570;2023-04-25T05:48:57;7.70;53.50
79711;DHT22;69465;51.630;6.570;2023-04-25T05:51:23;7.70;52.50
79711;DHT22;69465;51.630;6.570;2023-04-25T05:53:50;7.80;53.10
79711;DHT22;69465;51.630;6.570;2023-04-25T05:56:17;7.90;53.60
79711;DHT22;69465;51.630;6.570;2023-04-25T05:58:44;8.00;53.00
79711;DHT22;69465;51.630;6.570;2023-04-25T06:01:11;8.00;53.10
79711;DHT22;69465;51.630;6.570;2023-04-25T06:03:38;8.00;53.70
79711;DHT22;69465;51.630;6.570;2023-04-25T06:06:06;8.00;54.50
79711;DHT22;69465;51.630;6.570;2023-04-25T06:08:32;7.80;54.40
79711;DHT22;69465;51.630;6.570;2023-04-25T06:10:59;7.80;54.70
79711;DHT22;69465;51.630;6.570;2023-04-25T06:13:25;7.80;55.00
79711;DHT22;69465;51.630;6.570;2023-04-25T06:15:52;7.80;54.80
79711;DHT22;69465;51.630;6.570;2023-04-25T06:18:19;7.80;54.20
79711;DHT22;69465;51.630;6.570;2023-04-25T06:20:46;7.90;55.40
79711;DHT22;69465;51.630;6.570;2023-04-25T06:23:12;8.20;53.90
79711;DHT22;69465;51.630;6.570;2023-04-25T06:25:39;8.50;53.70
79711;DHT22;69465;51.630;6.570;2023-04-25T06:28:06;8.70;53.70
79711;DHT22;69465;51.630;6.570;2023-04-25T06:30:33;9.00;52.40
79711;DHT22;69465;51.630;6.570;2023-04-25T06:32:59;9.20;52.20
79711;DHT22;69465;51.630;6.570;2023-04-25T06:35:26;9.50;50.80
79711;DHT22;69465;51.630;6.570;2023-04-25T06:37:52;10.10;50.30
79711;DHT22;69465;51.630;6.570;2023-04-25T06:40:19;11.00;46.20
79711;DHT22;69465;51.630;6.570;2023-04-25T06:42:46;11.30;44.90
79711;DHT22;69465;51.630;6.570;2023-04-25T06:45:12;11.40;44.20
79711;DHT22;69465;51.630;6.570;2023-04-25T06:47:39;11.30;43.70
79711;DHT22;69465;51.630;6.570;2023-04-25T06:50:06;11.10;44.10
79711;DHT22;69465;51.630;6.570;2023-04-25T06:52:33;10.90;44.60
79711;DHT22;69465;51.630;6.570;2023-04-25T06:54:59;10.70;45.80
79711;DHT22;69465;51.630;6.570;2023-04-25T06:57:26;10.50;46.10
79711;DHT22;69465;51.630;6.570;2023-04-25T06:59:53;10.30;46.60
79711;DHT22;69465;51.630;6.570;2023-04-25T07:02:19;10.20;47.40
79711;DHT22;69465;51.630;6.570;2023-04-25T07:04:46;10.20;47.00
79711;DHT22;69465;51.630;6.570;2023-04-25T07:07:13;10.30;47.30
79711;DHT22;69465;51.630;6.570;2023-04-25T07:09:39;10.30;46.10
79711;DHT22;69465;51.630;6.570;2023-04-25T07:12:06;10.30;44.80
79711;DHT22;69465;51.630;6.570;2023-04-25T07:14:33;10.40;45.80
79711;DHT22;69465;51.630;6.570;2023-04-25T07:17:00;10.40;45.40
79711;DHT22;69465;51.630;6.570;2023-04-25T07:19:26;10.70;44.10
79711;DHT22;69465;51.630;6.570;2023-04-25T07:21:53;11.20;42.30
79711;DHT22;69465;51.630;6.570;2023-04-25T07:24:19;11.50;41.80
79711;DHT22;69465;51.630;6.570;2023-04-25T07:26:46;11.60;41.90
79711;DHT22;69465;51.630;6.570;2023-04-25T07:29:13;11.80;41.60
79711;DHT22;69465;51.630;6.570;2023-04-25T07:31:39;12.00;40.10
79711;DHT22;69465;51.630;6.570;2023-04-25T07:34:06;12.30;41.00
79711;DHT22;69465;51.630;6.570;2023-04-25T07:36:33;12.30;39.60
79711;DHT22;69465;51.630;6.570;2023-04-25T07:38:59;12.40;38.10
79711;DHT22;69465;51.630;6.570;2023-04-25T07:41:26;12.20;38.40
79711;DHT22;69465;51.630;6.570;2023-04-25T07:43:52;12.10;38.60
79711;DHT22;69465;51.630;6.570;2023-04-25T07:46:19;12.20;38.00
79711;DHT22;69465;51.630;6.570;2023-04-25T07:48:46;12.00;38.90
79711;DHT22;69465;51.630;6.570;2023-04-25T07:51:12;11.80;39.30
79711;DHT22;69465;51.630;6.570;2023-04-25T07:53:39;11.80;40.50
79711;DHT22;69465;51.630;6.570;2023-04-25T07:56:06;11.70;40.10
79711;DHT22;69465;51.630;6.570;2023-04-25T07:58:32;11.60;41.90
79711;DHT22;69465;51.630;6.570;2023-04-25T08:00:59;11.80;41.70
79711;DHT22;69465;51.630;6.570;2023-04-25T08:03:26;11.60;40.20
79711;DHT22;69465;51.630;6.570;2023-04-25T08:05:53;11.70;41.20
79711;DHT22;69465;51.630;6.570;2023-04-25T08:08:20;11.80;42.00
79711;DHT22;69465;51.630;6.570;2023-04-25T08:10:47;11.90;39.60
79711;DHT22;69465;51.630;6.570;2023-04-25T08:13:13;12.10;39.40
79711;DHT22;69465;51.630;6.570;2023-04-25T08:15:40;12.20;39.20
79711;DHT22;69465;51.630;6.570;2023-04-25T08:18:07;12.50;39.60
79711;DHT22;69465;51.630;6.570;2023-04-25T08:20:34;12.80;37.90
79711;DHT22;69465;51.630;6.570;2023-04-25T08:23:01;13.00;37.10
79711;DHT22;69465;51.630;6.570;2023-04-25T08:25:27;13.20;36.20
79711;DHT22;69465;51.630;6.570;2023-04-25T08:27:54;13.40;35.40
79711;DHT22;69465;51.630;6.570;2023-04-25T08:30:21;13.80;36.50
79711;DHT22;69465;51.630;6.570;2023-04-25T08:32:48;14.10;35.50
79711;DHT22;69465;51.630;6.570;2023-04-25T08:35:14;14.50;33.50
79711;DHT22;69465;51.630;6.570;2023-04-25T08:37:41;14.50;32.50
79711;DHT22;69465;51.630;6.570;2023-04-25T08:40:12;14.40;32.20
79711;DHT22;69465;51.630;6.570;2023-04-25T08:42:41;14.20;31.60
79711;DHT22;69465;51.630;6.570;2023-04-25T08:45:09;14.30;33.10
79711;DHT22;69465;51.630;6.570;2023-04-25T08:47:38;14.30;32.40
79711;DHT22;69465;51.630;6.570;2023-04-25T08:50:05;14.60;33.30
79711;DHT22;69465;51.630;6.570;2023-04-25T08:52:44;14.60;30.60
79711;DHT22;69465;51.630;6.570;2023-04-25T08:55:12;14.70;30.00
79711;DHT22;69465;51.630;6.570;2023-04-25T08:57:42;14.90;30.10
79711;DHT22;69465;51.630;6.570;2023-04-25T09:00:10;15.20;31.80
79711;DHT22;69465;51.630;6.570;2023-04-25T09:02:39;15.50;29.90
79711;DHT22;69465;51.630;6.570;2023-04-25T09:05:06;15.70;29.80
79711;DHT22;69465;51.630;6.570;2023-04-25T09:07:33;15.80;28.00
79711;DHT22;69465;51.630;6.570;2023-04-25T09:10:00;16.50;29.30
79711;DHT22;69465;51.630;6.570;2023-04-25T09:12:27;16.90;27.40
79711;DHT22;69465;51.630;6.570;2023-04-25T09:15:06;17.50;26.20
79711;DHT22;69465;51.630;6.570;2023-04-25T09:17:33;17.70;26.80
79711;DHT22;69465;51.630;6.570;2023-04-25T09:20:08;18.00;23.60
79711;DHT22;69465;51.630;6.570;2023-04-25T09:22:36;17.90;24.30
79711;DHT22;69465;51.630;6.570;2023-04-25T09:25:13;16.90;26.20
79711;DHT22;69465;51.630;6.570;2023-04-25T09:27:50;16.50;25.40
79711;DHT22;69465;51.630;6.570;2023-04-25T09:30:17;16.70;26.10
79711;DHT22;69465;51.630;6.570;2023-04-25T09:32:44;17.00;25.70
79711;DHT22;69465;51.630;6.570;2023-04-25T09:35:10;17.50;27.80
79711;DHT22;69465;51.630;6.570;2023-04-25T09:37:49;18.00;25.60
79711;DHT22;69465;51.630;6.570;2023-04-25T09:40:17;18.80;25.40
79711;DHT22;69465;51.630;6.570;2023-04-25T09:42:44;18.60;24.50
79711;DHT22;69465;51.630;6.570;2023-04-25T09:45:13;18.30;24.60
79711;DHT22;69465;51.630;6.570;2023-04-25T09:47:40;18.00;24.40
79711;DHT22;69465;51.630;6.570;2023-04-25T09:50:14;17.50;25.00
79711;DHT22;69465;51.630;6.570;2023-04-25T09:52:41;16.50;24.20
79711;DHT22;69465;51.630;6.570;2023-04-25T09:55:08;16.10;26.00
79711;DHT22;69465;51.630;6.570;2023-04-25T09:57:35;15.80;26.70
79711;DHT22;69465;51.630;6.570;2023-04-25T10:00:02;15.40;29.40
79711;DHT22;69465;51.630;6.570;2023-04-25T10:02:29;15.00;29.80
79711;DHT22;69465;51.630;6.570;2023-04-25T10:04:56;14.20;31.40
79711;DHT22;69465;51.630;6.570;2023-04-25T10:07:25;13.50;32.50
79711;DHT22;69465;51.630;6.570;2023-04-25T10:09:59;12.80;33.20
79711;DHT22;69465;51.630;6.570;2023-04-25T10:12:26;12.30;34.60
79711;DHT22;69465;51.630;6.570;2023-04-25T10:14:54;12.00;36.60
79711;DHT22;69465;51.630;6.570;2023-04-25T10:17:21;11.60;37.00
79711;DHT22;69465;51.630;6.570;2023-04-25T10:19:47;11.50;39.00
79711;DHT22;69465;51.630;6.570;2023-04-25T10:22:20;11.50;38.70
79711;DHT22;69465;51.630;6.570;2023-04-25T10:24:51;11.50;38.10
79711;DHT22;69465;51.630;6.570;2023-04-25T10:27:17;11.60;38.70
79711;DHT22;69465;51.630;6.570;2023-04-25T10:29:44;11.60;38.00
79711;DHT22;69465;51.630;6.570;2023-04-25T10:32:10;11.70;37.20
79711;DHT22;69465;51.630;6.570;2023-04-25T10:34:39;11.80;38.90
79711;DHT22;69465;51.630;6.570;2023-04-25T10:37:09;11.80;38.80
79711;DHT22;69465;51.630;6.570;2023-04-25T10:39:39;12.00;38.80
79711;DHT22;69465;51.630;6.570;2023-04-25T10:42:05;12.10;37.10
79711;DHT22;69465;51.630;6.570;2023-04-25T10:44:32;12.00;36.00
79711;DHT22;69465;51.630;6.570;2023-04-25T10:47:00;12.10;36.60
79711;DHT22;69465;51.630;6.570;2023-04-25T10:49:34;12.10;35.20
79711;DHT22;69465;51.630;6.570;2023-04-25T10:52:17;12.00;35.60
79711;DHT22;69465;51.630;6.570;2023-04-25T10:54:53;11.80;37.20
79711;DHT22;69465;51.630;6.570;2023-04-25T10:57:51;11.70;35.80
79711;DHT22;69465;51.630;6.570;2023-04-25T11:00:20;11.50;37.00
79711;DHT22;69465;51.630;6.570;2023-04-25T11:02:47;11.70;39.30
79711;DHT22;69465;51.630;6.570;2023-04-25T11:07:51;12.10;36.00
79711;DHT22;69465;51.630;6.570;2023-04-25T11:10:33;12.30;37.70
79711;DHT22;69465;51.630;6.570;2023-04-25T11:13:00;12.30;35.20
79711;DHT22;69465;51.630;6.570;2023-04-25T11:15:27;12.40;34.50
79711;DHT22;69465;51.630;6.570;2023-04-25T11:17:55;12.50;33.60
79711;DHT22;69465;51.630;6.570;2023-04-25T11:20:22;12.50;34.00
79711;DHT22;69465;51.630;6.570;2023-04-25T11:22:48;12.40;34.80
79711;DHT22;69465;51.630;6.570;2023-04-25T11:25:18;12.40;29.70
79711;DHT22;69465;51.630;6.570;2023-04-25T11:27:52;12.60;29.30
79711;DHT22;69465;51.630;6.570;2023-04-25T11:30:20;12.80;28.80
79711;DHT22;69465;51.630;6.570;2023-04-25T11:32:47;13.00;28.90
79711;DHT22;69465;51.630;6.570;2023-04-25T11:35:14;13.20;30.20
79711;DHT22;69465;51.630;6.570;2023-04-25T11:37:42;13.30;29.10
79711;DHT22;69465;51.630;6.570;2023-04-25T11:40:10;13.40;32.30
79711;DHT22;69465;51.630;6.570;2023-04-25T11:42:45;13.40;32.20
79711;DHT22;69465;51.630;6.570;2023-04-25T11:45:14;13.50;29.20
79711;DHT22;69465;51.630;6.570;2023-04-25T11:47:41;13.50;30.20
79711;DHT22;69465;51.630;6.570;2023-04-25T11:50:08;13.50;30.40
79711;DHT22;69465;51.630;6.570;2023-04-25T11:52:43;13.60;31.90
79711;DHT22;69465;51.630;6.570;2023-04-25T11:55:14;13.80;29.60
79711;DHT22;69465;51.630;6.570;2023-04-25T11:57:42;13.90;29.90
79711;DHT22;69465;51.630;6.570;2023-04-25T12:02:44;14.30;31.30
79711;DHT22;69465;51.630;6.570;2023-04-25T12:05:13;14.60;28.40
79711;DHT22;69465;51.630;6.570;2023-04-25T12:07:57;14.70;30.00
79711;DHT22;69465;51.630;6.570;2023-04-25T12:10:24;14.10;28.10
79711;DHT22;69465;51.630;6.570;2023-04-25T12:12:51;13.50;30.10
79711;DHT22;69465;51.630;6.570;2023-04-25T12:15:24;13.00;32.30
79711;DHT22;69465;51.630;6.570;2023-04-25T12:17:52;12.40;32.80
79711;DHT22;69465;51.630;6.570;2023-04-25T12:20:23;12.10;36.90
79711;DHT22;69465;51.630;6.570;2023-04-25T12:22:51;11.90;38.10
79711;DHT22;69465;51.630;6.570;2023-04-25T12:28:17;11.60;38.10
79711;DHT22;69465;51.630;6.570;2023-04-25T12:31:03;11.70;37.20
79711;DHT22;69465;51.630;6.570;2023-04-25T12:33:37;11.90;36.70
79711;DHT22;69465;51.630;6.570;2023-04-25T12:36:05;12.00;34.50
79711;DHT22;69465;51.630;6.570;2023-04-25T12:38:36;12.40;37.10
79711;DHT22;69465;51.630;6.570;2023-04-25T12:41:03;12.60;35.80
79711;DHT22;69465;51.630;6.570;2023-04-25T12:43:30;12.80;34.80
79711;DHT22;69465;51.630;6.570;2023-04-25T12:45:57;13.10;38.70
79711;DHT22;69465;51.630;6.570;2023-04-25T12:48:24;13.30;30.90
79711;DHT22;69465;51.630;6.570;2023-04-25T12:50:51;13.30;30.00
79711;DHT22;69465;51.630;6.570;2023-04-25T12:53:22;13.20;32.30
79711;DHT22;69465;51.630;6.570;2023-04-25T12:55:49;13.20;28.20
79711;DHT22;69465;51.630;6.570;2023-04-25T12:58:17;13.30;31.00
79711;DHT22;69465;51.630;6.570;2023-04-25T13:00:45;13.30;29.40
79711;DHT22;69465;51.630;6.570;2023-04-25T13:03:12;13.30;29.40
79711;DHT22;69465;51.630;6.570;2023-04-25T13:05:40;13.30;30.30
79711;DHT22;69465;51.630;6.570;2023-04-25T13:08:07;13.40;30.50
79711;DHT22;69465;51.630;6.570;2023-04-25T13:10:33;13.40;29.10
79711;DHT22;69465;51.630;6.570;2023-04-25T13:13:00;13.40;30.50
79711;DHT22;69465;51.630;6.570;2023-04-25T13:15:27;13.50;31.90
79711;DHT22;69465;51.630;6.570;2023-04-25T13:17:53;13.30;30.10
79711;DHT22;69465;51.630;6.570;2023-04-25T13:20:20;13.50;33.20
79711;DHT22;69465;51.630;6.570;2023-04-25T13:22:46;13.50;28.20
79711;DHT22;69465;51.630;6.570;2023-04-25T13:25:13;13.50;29.20
79711;DHT22;69465;51.630;6.570;2023-04-25T13:27:40;13.50;28.10
79711;DHT22;69465;51.630;6.570;2023-04-25T13:30:07;13.50;29.20
79711;DHT22;69465;51.630;6.570;2023-04-25T13:32:34;13.40;28.10
79711;DHT22;69465;51.630;6.570;2023-04-25T13:35:03;13.40;29.20
79711;DHT22;69465;51.630;6.570;2023-04-25T13:37:34;13.40;28.90
79711;DHT22;69465;51.630;6.570;2023-04-25T13:40:04;13.50;28.00
79711;DHT22;69465;51.630;6.570;2023-04-25T13:42:31;13.70;27.40
79711;DHT22;69465;51.630;6.570;2023-04-25T13:44:58;13.90;25.80
79711;DHT22;69465;51.630;6.570;2023-04-25T13:47:26;14.20;27.20
79711;DHT22;69465;51.630;6.570;2023-04-25T13:49:53;14.40;23.90
79711;DHT22;69465;51.630;6.570;2023-04-25T13:52:19;14.30;27.30
79711;DHT22;69465;51.630;6.570;2023-04-25T13:54:46;13.80;30.00
79711;DHT22;69465;51.630;6.570;2023-04-25T13:57:13;13.40;30.30
79711;DHT22;69465;51.630;6.570;2023-04-25T13:59:39;13.00;30.70
79711;DHT22;69465;51.630;6.570;2023-04-25T14:02:06;12.80;31.70
79711;DHT22;69465;51.630;6.570;2023-04-25T14:04:33;12.50;33.00
79711;DHT22;69465;51.630;6.570;2023-04-25T14:07:00;12.40;33.30
79711;DHT22;69465;51.630;6.570;2023-04-25T14:09:26;12.20;32.70
79711;DHT22;69465;51.630;6.570;2023-04-25T14:11:53;12.10;33.80
79711;DHT22;69465;51.630;6.570;2023-04-25T14:14:21;12.00;33.40
79711;DHT22;69465;51.630;6.570;2023-04-25T14:16:48;12.10;34.00
79711;DHT22;69465;51.630;6.570;2023-04-25T14:19:15;12.30;33.20
79711;DHT22;69465;51.630;6.570;2023-04-25T14:21:42;12.60;35.70
79711;DHT22;69465;51.630;6.570;2023-04-25T14:24:10;12.90;33.50
79711;DHT22;69465;51.630;6.570;2023-04-25T14:26:36;13.10;31.00
79711;DHT22;69465;51.630;6.570;2023-04-25T14:29:05;13.10;31.40
79711;DHT22;69465;51.630;6.570;2023-04-25T14:31:32;13.20;31.80
79711;DHT22;69465;51.630;6.570;2023-04-25T14:33:58;13.30;31.70
79711;DHT22;69465;51.630;6.570;2023-04-25T14:36:26;13.20;29.60
79711;DHT22;69465;51.630;6.570;2023-04-25T14:38:54;13.20;30.00
79711;DHT22;69465;51.630;6.570;2023-04-25T14:41:21;13.20;27.40
79711;DHT22;69465;51.630;6.570;2023-04-25T14:43:47;13.10;27.20
79711;DHT22;69465;51.630;6.570;2023-04-25T14:46:14;13.10;26.40
79711;DHT22;69465;51.630;6.570;2023-04-25T14:48:41;13.00;27.90
79711;DHT22;69465;51.630;6.570;2023-04-25T14:51:09;13.00;26.80
79711;DHT22;69465;51.630;6.570;2023-04-25T14:53:35;12.90;27.80
79711;DHT22;69465;51.630;6.570;2023-04-25T14:56:02;12.80;26.90
79711;DHT22;69465;51.630;6.570;2023-04-25T14:58:30;12.70;26.70
79711;DHT22;69465;51.630;6.570;2023-04-25T15:00:57;12.80;28.60
79711;DHT22;69465;51.630;6.570;2023-04-25T15:03:24;13.00;26.60
79711;DHT22;69465;51.630;6.570;2023-04-25T15:05:55;13.10;26.50
79711;DHT22;69465;51.630;6.570;2023-04-25T15:08:21;13.30;27.20
79711;DHT22;69465;51.630;6.570;2023-04-25T15:10:48;13.40;29.60
79711;DHT22;69465;51.630;6.570;2023-04-25T15:13:17;13.30;28.50
79711;DHT22;69465;51.630;6.570;2023-04-25T15:15:44;13.00;27.10
79711;DHT22;69465;51.630;6.570;2023-04-25T15:18:10;12.70;27.50
79711;DHT22;69465;51.630;6.570;2023-04-25T15:20:37;12.50;27.50
79711;DHT22;69465;51.630;6.570;2023-04-25T15:23:03;12.30;29.60
79711;DHT22;69465;51.630;6.570;2023-04-25T15:25:30;12.30;32.60
79711;DHT22;69465;51.630;6.570;2023-04-25T15:27:57;12.40;31.50
79711;DHT22;69465;51.630;6.570;2023-04-25T15:30:23;12.50;30.90
79711;DHT22;69465;51.630;6.570;2023-04-25T15:32:50;12.60;28.60
79711;DHT22;69465;51.630;6.570;2023-04-25T15:35:16;12.80;27.00
79711;DHT22;69465;51.630;6.570;2023-04-25T15:37:43;12.80;29.20
79711;DHT22;69465;51.630;6.570;2023-04-25T15:40:12;12.70;28.20
79711;DHT22;69465;51.630;6.570;2023-04-25T15:42:41;12.60;27.80
79711;DHT22;69465;51.630;6.570;2023-04-25T15:45:10;12.50;29.20
79711;DHT22;69465;51.630;6.570;2023-04-25T15:47:37;12.40;29.20
79711;DHT22;69465;51.630;6.570;2023-04-25T15:50:05;12.20;31.20
79711;DHT22;69465;51.630;6.570;2023-04-25T15:52:33;12.10;30.00
79711;DHT22;69465;51.630;6.570;2023-04-25T15:55:00;12.00;30.00
79711;DHT22;69465;51.630;6.570;2023-04-25T15:57:27;11.90;29.50
79711;DHT22;69465;51.630;6.570;2023-04-25T15:59:53;11.80;30.00
79711;DHT22;69465;51.630;6.570;2023-04-25T16:02:20;11.80;31.50
79711;DHT22;69465;51.630;6.570;2023-04-25T16:04:47;11.70;32.20
79711;DHT22;69465;51.630;6.570;2023-04-25T16:07:13;11.70;32.10
79711;DHT22;69465;51.630;6.570;2023-04-25T16:09:41;11.80;31.40
79711;DHT22;69465;51.630;6.570;2023-04-25T16:12:10;12.00;32.50
79711;DHT22;69465;51.630;6.570;2023-04-25T16:14:36;12.00;32.50
79711;DHT22;69465;51.630;6.570;2023-04-25T16:17:03;12.10;32.60
79711;DHT22;69465;51.630;6.570;2023-04-25T16:19:29;12.00;32.80
79711;DHT22;69465;51.630;6.570;2023-04-25T16:21:56;11.80;32.90
79711;DHT22;69465;51.630;6.570;2023-04-25T16:24:22;11.90;32.80
79711;DHT22;69465;51.630;6.570;2023-04-25T16:26:49;11.90;30.80
79711;DHT22;69465;51.630;6.570;2023-04-25T16:29:16;11.90;31.40
79711;DHT22;69465;51.630;6.570;2023-04-25T16:31:42;11.80;31.60
79711;DHT22;69465;51.630;6.570;2023-04-25T16:34:09;11.70;32.00
79711;DHT22;69465;51.630;6.570;2023-04-25T16:36:36;11.70;32.80
79711;DHT22;69465;51.630;6.570;2023-04-25T16:39:02;11.70;32.20
79711;DHT22;69465;51.630;6.570;2023-04-25T16:41:29;11.80;32.80
79711;DHT22;69465;51.630;6.570;2023-04-25T16:43:55;11.90;31.00
79711;DHT22;69465;51.630;6.570;2023-04-25T16:46:22;11.90;32.90
79711;DHT22;69465;51.630;6.570;2023-04-25T16:48:49;11.80;31.60
79711;DHT22;69465;51.630;6.570;2023-04-25T16:51:16;11.80;32.30
79711;DHT22;69465;51.630;6.570;2023-04-25T16:53:43;11.80;32.90
79711;DHT22;69465;51.630;6.570;2023-04-25T16:56:10;11.70;32.20
79711;DHT22;69465;51.630;6.570;2023-04-25T16:58:36;11.50;31.00
79711;DHT22;69465;51.630;6.570;2023-04-25T17:01:03;11.30;30.70
79711;DHT22;69465;51.630;6.570;2023-04-25T17:03:30;11.20;31.80
79711;DHT22;69465;51.630;6.570;2023-04-25T17:06:00;11.10;32.80
79711;DHT22;69465;51.630;6.570;2023-04-25T17:08:27;11.10;34.20
79711;DHT22;69465;51.630;6.570;2023-04-25T17:10:53;10.90;34.10
79711;DHT22;69465;51.630;6.570;2023-04-25T17:13:20;10.80;34.60
79711;DHT22;69465;51.630;6.570;2023-04-25T17:15:56;10.70;35.30
79711;DHT22;69465;51.630;6.570;2023-04-25T17:18:22;10.40;35.20
79711;DHT22;69465;51.630;6.570;2023-04-25T17:20:50;10.40;36.20
79711;DHT22;69465;51.630;6.570;2023-04-25T17:23:17;10.20;35.80
79711;DHT22;69465;51.630;6.570;2023-04-25T17:25:44;10.10;37.50
79711;DHT22;69465;51.630;6.570;2023-04-25T17:28:10;10.10;37.30
79711;DHT22;69465;51.630;6.570;2023-04-25T17:30:37;10.00;35.80
79711;DHT22;69465;51.630;6.570;2023-04-25T17:33:04;9.90;37.30
79711;DHT22;69465;51.630;6.570;2023-04-25T17:35:31;9.90;37.10
79711;DHT22;69465;51.630;6.570;2023-04-25T17:37:57;9.90;36.90